Ardsley On Hudson, NY

8:47 AM EDT on May 06, 2015 (GMT -0400)
Tarryhill | | Change Station
CLOSE
Current Station
Personal Weather Station
Location: Tarrytown, NY
Elevation: 323 ft
Nearby Weather Stations

Elev 323 ft 41.05 °N, 73.85 °W | Updated 47 seconds ago

Overcast
Overcast
60.5 °F
Feels Like 60.5 °F
N
6.9
Wind Variable Wind from South
Gusts 6.9 mph

Today
High -- | Low -- °F
--% Chance of Precip.
Yesterday
High -- | Low -- °F
Precip. -- in
5:47 AM 7:57 PM
Waning Gibbous, 94% visible
Pressure 30.24 in
Visibility 10.0 miles
Clouds Mostly Cloudy 7500 ft
Overcast 9000 ft
Dew Point 44 °F
Humidity 55%
Rainfall 0.00 in
Snow Depth Not available.
UV 0 out of 12
Pollen 3.80 out of 12
Air Quality Not available.
Flu Activity Widespread
METAR KHPN 061056Z 04007KT 10SM BKN075 OVC090 18/02 A3024 RMK AO2 RAE27 SLP238 P0000 T01780017 $

More Conditions Fewer Conditions

Pressure 30.24 in
Visibility 10.0 miles
Clouds Mostly Cloudy 7500 ft
Overcast 9000 ft
Dew Point 44 °F
Humidity 55%
Rainfall 0.00 in
Snow Depth Not available.
UV 0 out of 12
Pollen 3.80 out of 12
Air Quality Not available.
Flu Activity Widespread
METAR KHPN 061056Z 04007KT 10SM BKN075 OVC090 18/02 A3024 RMK AO2 RAE27 SLP238 P0000 T01780017 $

More Conditions Fewer Conditions

10-Day Weather Forecast

Almanac

Astronomy

May. 06, 2015 Rise Set
Actual Time
Civil Twilight
Nautical Twilight
Astronomical Twilight
Moon
Length of Visible Light
Length of Day
Tomorrow will be .
, % of the Moon is Illuminated

Today's Extremes

State Highs State Lows

Community

WunderPhotos

Upload Photos

1,818,884 photos uploaded!

WunderBlogs® & News

Nearby

Air Quality

  Air Quality AQ Index Pollutant
Not available.

Snow Depth

Station Depth Elevation

Earthquake Activity

City Distance Mag. Time & Date
Minimum magnitude displayed is 2.5.

Coastal Water Temperatures

Place Temperature

Stations

Nearby Weather Stations

Station Location Temp. Windchill Dew Point Humidity Wind Precip. Elev Updated Type